createdAt,value
2023-10-09T00:00:53.836Z,12.78
2023-10-09T00:03:24.484Z,12.81
2023-10-09T00:05:55.401Z,12.83
2023-10-09T00:08:31.409Z,12.80
2023-10-09T00:11:14.810Z,12.80
2023-10-09T00:13:52.241Z,12.78
2023-10-09T00:16:34.401Z,12.87
2023-10-09T00:19:15.015Z,12.89
2023-10-09T00:21:44.297Z,12.90
2023-10-09T00:24:17.547Z,12.94
2023-10-09T00:26:48.076Z,12.96
2023-10-09T00:29:23.018Z,12.96
2023-10-09T00:31:57.268Z,12.97
2023-10-09T00:34:27.802Z,12.95
2023-10-09T00:36:59.056Z,12.97
2023-10-09T00:39:44.781Z,12.98
2023-10-09T00:42:15.735Z,12.99
2023-10-09T00:44:49.549Z,12.99
2023-10-09T00:47:23.724Z,12.88
2023-10-09T00:50:00.567Z,12.88
2023-10-09T00:52:35.631Z,12.82
2023-10-09T00:55:15.135Z,12.91
2023-10-09T00:57:58.957Z,12.95
2023-10-09T01:00:47.072Z,12.94
2023-10-09T01:03:21.779Z,12.96
2023-10-09T01:05:59.609Z,12.88
2023-10-09T01:08:44.908Z,12.87
2023-10-09T01:11:19.670Z,12.92
2023-10-09T01:13:57.277Z,12.93
2023-10-09T01:16:27.484Z,12.95
2023-10-09T01:18:59.069Z,12.93
2023-10-09T01:21:29.012Z,12.96
2023-10-09T01:24:11.953Z,12.96
2023-10-09T01:26:46.280Z,12.96
2023-10-09T01:29:17.739Z,12.96
2023-10-09T01:31:56.579Z,12.97
2023-10-09T01:34:40.195Z,13.00
2023-10-09T01:37:20.049Z,13.00
2023-10-09T01:40:04.528Z,13.02
2023-10-09T01:42:36.227Z,13.04
2023-10-09T01:45:28.362Z,13.03
2023-10-09T01:47:57.843Z,13.00
2023-10-09T01:50:32.490Z,12.99
2023-10-09T01:53:03.331Z,12.98
2023-10-09T01:55:36.853Z,13.09
2023-10-09T01:58:08.889Z,13.03
2023-10-09T02:00:44.234Z,13.20
2023-10-09T02:03:25.261Z,13.15
2023-10-09T02:06:00.679Z,13.09
2023-10-09T02:08:37.411Z,13.08
2023-10-09T02:11:08.441Z,13.24
2023-10-09T02:13:43.013Z,13.31
2023-10-09T02:16:29.523Z,13.34
2023-10-09T02:19:00.141Z,13.31
2023-10-09T02:21:31.782Z,13.28
2023-10-09T02:24:05.519Z,13.28
2023-10-09T02:27:02.449Z,13.23
2023-10-09T02:29:36.423Z,13.31
2023-10-09T02:32:15.140Z,13.31
2023-10-09T02:34:47.725Z,13.30
2023-10-09T02:37:24.427Z,13.33
2023-10-09T02:39:53.872Z,13.36
2023-10-09T02:42:29.699Z,13.37
2023-10-09T02:45:00.717Z,13.41
2023-10-09T02:47:32.974Z,13.37
2023-10-09T02:50:08.027Z,13.36
2023-10-09T02:52:42.201Z,13.34
2023-10-09T02:55:26.346Z,13.20
2023-10-09T02:58:06.559Z,13.07
2023-10-09T03:00:37.544Z,13.06
2023-10-09T03:03:08.898Z,13.01
2023-10-09T03:05:43.860Z,12.99
2023-10-09T03:08:13.497Z,12.99
2023-10-09T03:10:42.730Z,13.01
2023-10-09T03:13:12.867Z,13.05
2023-10-09T03:15:42.221Z,13.01
2023-10-09T03:18:11.028Z,13.05
2023-10-09T03:20:39.744Z,13.07
2023-10-09T03:23:10.991Z,13.03
2023-10-09T03:25:39.646Z,13.06
2023-10-09T03:28:08.437Z,13.08
2023-10-09T03:30:41.545Z,13.10
2023-10-09T03:33:10.460Z,13.14
2023-10-09T03:35:40.761Z,13.34
2023-10-09T03:38:14.222Z,13.42
2023-10-09T03:40:44.823Z,13.43
2023-10-09T03:43:14.898Z,13.39
2023-10-09T03:45:53.708Z,13.22
2023-10-09T03:48:27.316Z,13.15
2023-10-09T03:51:09.916Z,13.15
2023-10-09T03:53:40.496Z,13.26
2023-10-09T03:56:14.065Z,13.19
2023-10-09T03:58:44.113Z,13.20
2023-10-09T04:01:24.833Z,13.18
2023-10-09T04:04:07.765Z,13.19
2023-10-09T04:06:38.577Z,13.15
2023-10-09T04:09:28.703Z,13.19
2023-10-09T04:12:14.631Z,13.20
2023-10-09T04:14:51.393Z,13.24
2023-10-09T04:17:35.543Z,13.22
2023-10-09T04:20:23.807Z,13.19
2023-10-09T04:22:53.411Z,13.15
2023-10-09T04:25:28.013Z,13.15
2023-10-09T04:28:10.153Z,13.20
2023-10-09T04:30:41.873Z,13.22
2023-10-09T04:33:29.243Z,13.21
2023-10-09T04:36:23.633Z,13.21
2023-10-09T04:39:16.929Z,13.39
2023-10-09T04:41:53.576Z,13.30
2023-10-09T04:44:24.411Z,13.28
2023-10-09T04:47:08.308Z,13.29
2023-10-09T04:49:51.057Z,13.27
2023-10-09T04:52:41.210Z,13.26
2023-10-09T04:55:18.839Z,13.27
2023-10-09T04:58:02.847Z,13.26
2023-10-09T05:00:45.860Z,13.24
2023-10-09T05:03:29.521Z,13.21
2023-10-09T05:06:21.967Z,13.20
2023-10-09T05:08:55.038Z,13.13
2023-10-09T05:11:54.457Z,13.11
2023-10-09T05:14:28.499Z,13.19
2023-10-09T05:17:15.274Z,13.21
2023-10-09T05:19:56.199Z,13.23
2023-10-09T05:22:37.437Z,13.48
2023-10-09T05:25:37.854Z,13.35
2023-10-09T05:28:26.476Z,13.25
2023-10-09T05:31:03.790Z,13.21
2023-10-09T05:33:37.552Z,13.14
2023-10-09T05:36:18.797Z,13.22
2023-10-09T05:38:59.624Z,13.24
2023-10-09T05:41:48.593Z,13.26
2023-10-09T05:44:35.232Z,13.26
2023-10-09T05:47:20.313Z,13.26
2023-10-09T05:49:56.171Z,13.28
2023-10-09T05:52:33.955Z,13.29
2023-10-09T05:55:42.894Z,13.32
2023-10-09T05:59:03.601Z,13.33
2023-10-09T06:02:04.046Z,13.33
2023-10-09T06:04:50.932Z,13.34
2023-10-09T06:07:24.790Z,13.35
2023-10-09T06:09:56.657Z,13.36
2023-10-09T06:12:53.933Z,13.38
2023-10-09T06:15:52.501Z,13.41
2023-10-09T06:18:34.702Z,13.40
2023-10-09T06:21:31.383Z,13.38
2023-10-09T06:24:11.003Z,13.42
2023-10-09T06:26:42.587Z,13.39
2023-10-09T06:29:16.892Z,13.38
2023-10-09T06:32:21.061Z,13.38
2023-10-09T06:34:53.082Z,13.42
2023-10-09T06:40:39.441Z,13.47
2023-10-09T06:43:10.972Z,13.49
2023-10-09T06:45:55.724Z,13.52
2023-10-09T06:48:46.124Z,13.52
2023-10-09T06:51:38.108Z,13.58
2023-10-09T06:54:08.630Z,13.62
2023-10-09T07:00:06.191Z,13.69
2023-10-09T07:02:47.572Z,13.78
2023-10-09T07:05:19.024Z,13.82
2023-10-09T07:07:56.671Z,13.88
2023-10-09T07:10:34.113Z,13.96
2023-10-09T07:13:06.186Z,14.02
2023-10-09T07:15:55.885Z,14.07
2023-10-09T07:18:42.334Z,14.12
2023-10-09T07:21:19.529Z,14.20
2023-10-09T07:23:50.527Z,14.25
2023-10-09T07:26:24.800Z,14.28
2023-10-09T07:29:17.361Z,14.33
2023-10-09T07:31:56.406Z,14.35
2023-10-09T07:34:33.758Z,14.34
2023-10-09T07:37:05.990Z,14.37
2023-10-09T07:39:37.629Z,14.33
2023-10-09T07:42:21.489Z,14.40
2023-10-09T07:44:56.177Z,14.45
2023-10-09T07:47:47.365Z,14.48
2023-10-09T07:50:24.040Z,14.53
2023-10-09T07:52:54.066Z,14.55
2023-10-09T07:55:35.984Z,14.55
2023-10-09T07:58:12.002Z,14.56
2023-10-09T08:01:07.845Z,14.54
2023-10-09T08:04:34.321Z,14.54
2023-10-09T08:08:02.932Z,14.58
2023-10-09T08:10:13.623Z,14.58
2023-10-09T08:12:57.210Z,14.62
2023-10-09T08:15:35.909Z,14.65
2023-10-09T08:18:11.487Z,14.58
2023-10-09T08:24:06.351Z,14.67
2023-10-09T08:26:54.724Z,14.73
2023-10-09T08:29:35.694Z,14.77
2023-10-09T08:34:16.063Z,14.85
2023-10-09T08:35:30.214Z,14.91
2023-10-09T08:38:01.514Z,14.91
2023-10-09T08:40:38.479Z,14.90
2023-10-09T08:43:15.930Z,14.81
2023-10-09T08:45:53.292Z,14.73
2023-10-09T08:48:23.261Z,14.74
2023-10-09T08:50:55.455Z,14.76
2023-10-09T08:53:29.133Z,14.77
2023-10-09T08:55:58.956Z,14.78
2023-10-09T08:58:32.267Z,14.70
2023-10-09T09:01:19.021Z,14.71
2023-10-09T09:04:04.178Z,14.73
2023-10-09T09:06:42.725Z,14.69
2023-10-09T09:09:17.271Z,14.73
2023-10-09T09:14:54.431Z,14.74
2023-10-09T09:17:32.141Z,14.73
2023-10-09T09:20:01.128Z,14.80
2023-10-09T09:22:53.605Z,14.82
2023-10-09T09:25:26.124Z,14.84
2023-10-09T09:27:56.749Z,14.85
2023-10-09T09:30:29.706Z,14.85
2023-10-09T09:33:12.350Z,14.87
2023-10-09T09:35:44.120Z,14.79
2023-10-09T09:38:18.747Z,14.86
2023-10-09T09:40:55.250Z,14.84
2023-10-09T09:43:26.990Z,14.87
2023-10-09T09:46:01.962Z,14.92
2023-10-09T09:48:40.638Z,14.90
2023-10-09T09:51:19.661Z,14.94
2023-10-09T09:53:52.458Z,14.91
2023-10-09T09:56:27.442Z,14.87
2023-10-09T09:59:08.064Z,14.87
2023-10-09T10:02:49.669Z,14.93
2023-10-09T10:05:23.114Z,14.85
2023-10-09T10:07:56.478Z,14.86
2023-10-09T10:10:49.353Z,14.90
2023-10-09T10:13:29.545Z,14.89
2023-10-09T10:16:15.521Z,14.94
2023-10-09T10:19:15.646Z,15.00
2023-10-09T10:21:50.278Z,14.93
2023-10-09T10:24:53.247Z,14.98
2023-10-09T10:27:27.589Z,15.02
2023-10-09T10:30:35.732Z,15.14
2023-10-09T10:33:17.488Z,15.17
2023-10-09T10:35:54.069Z,15.22
2023-10-09T10:38:35.707Z,15.31
2023-10-09T10:41:18.780Z,15.26
2023-10-09T10:44:14.107Z,15.21
2023-10-09T10:46:47.218Z,15.22
2023-10-09T10:49:21.864Z,15.23
2023-10-09T10:52:02.885Z,15.21
2023-10-09T10:55:06.791Z,15.22
2023-10-09T10:58:04.998Z,15.26
2023-10-09T11:00:52.927Z,15.27
2023-10-09T11:03:30.838Z,15.31
2023-10-09T11:06:15.098Z,15.36
2023-10-09T11:08:55.632Z,15.39
2023-10-09T11:11:33.350Z,15.38
2023-10-09T11:14:15.796Z,15.40
2023-10-09T11:16:49.696Z,15.41
2023-10-09T11:19:32.727Z,15.42
2023-10-09T11:22:21.109Z,15.43
2023-10-09T11:25:12.806Z,15.45
2023-10-09T11:27:51.733Z,15.49
2023-10-09T11:30:33.875Z,15.50
2023-10-09T11:33:15.699Z,15.51
2023-10-09T11:35:58.523Z,15.47
2023-10-09T11:38:29.985Z,15.45
2023-10-09T11:41:07.727Z,15.47
2023-10-09T11:43:53.947Z,15.46
2023-10-09T11:46:38.516Z,15.46
2023-10-09T11:49:27.634Z,15.36
2023-10-09T11:52:21.584Z,15.34
2023-10-09T11:54:50.264Z,15.41
2023-10-09T11:57:19.347Z,15.46
2023-10-09T11:59:53.508Z,15.51
2023-10-09T12:02:22.602Z,15.52
2023-10-09T12:04:55.365Z,15.55
2023-10-09T12:07:26.751Z,15.55
2023-10-09T12:09:57.785Z,15.58
2023-10-09T12:12:28.167Z,15.64
2023-10-09T12:14:56.808Z,15.66
2023-10-09T12:17:27.758Z,15.66
2023-10-09T12:19:59.994Z,15.69
2023-10-09T12:22:29.086Z,15.69
2023-10-09T12:24:58.614Z,15.72
2023-10-09T12:27:30.239Z,15.72
2023-10-09T12:29:59.671Z,15.68
2023-10-09T12:32:28.348Z,15.70
2023-10-09T12:34:58.583Z,15.74
2023-10-09T12:37:27.641Z,15.75
2023-10-09T12:39:58.035Z,15.76
2023-10-09T12:42:29.448Z,15.73
2023-10-09T12:44:59.096Z,15.71
2023-10-09T12:47:28.193Z,15.74
2023-10-09T12:49:58.529Z,15.75
2023-10-09T12:52:31.107Z,15.71
2023-10-09T12:55:00.283Z,15.70
2023-10-09T12:57:29.009Z,15.70
2023-10-09T12:59:57.785Z,15.67
2023-10-09T13:02:30.942Z,15.72
2023-10-09T13:05:04.770Z,15.76
2023-10-09T13:07:34.610Z,15.74
2023-10-09T13:10:14.434Z,15.71
2023-10-09T13:12:43.238Z,15.67
2023-10-09T13:15:13.465Z,15.69
2023-10-09T13:17:42.686Z,15.69
2023-10-09T13:20:15.028Z,15.70
2023-10-09T13:22:46.055Z,15.75
2023-10-09T13:25:33.784Z,15.71
2023-10-09T13:28:05.341Z,15.73
2023-10-09T13:30:40.599Z,15.74
2023-10-09T13:33:18.349Z,15.71
2023-10-09T13:35:52.041Z,15.75
2023-10-09T13:38:22.018Z,15.79
2023-10-09T13:41:02.562Z,15.80
2023-10-09T13:43:31.656Z,15.84
2023-10-09T13:46:04.995Z,15.84
2023-10-09T13:48:39.521Z,15.83
2023-10-09T13:51:15.085Z,15.85
2023-10-09T13:53:47.247Z,15.81
2023-10-09T13:56:19.539Z,15.75
2023-10-09T13:58:50.607Z,15.75
2023-10-09T14:01:33.812Z,15.79
2023-10-09T14:04:03.189Z,15.75
2023-10-09T14:06:33.309Z,15.75
2023-10-09T14:09:06.443Z,15.81
2023-10-09T14:11:38.862Z,15.74
2023-10-09T14:16:44.205Z,15.68
2023-10-09T14:19:15.572Z,15.73
2023-10-09T14:21:45.702Z,15.72
2023-10-09T14:24:19.829Z,15.76
2023-10-09T14:26:53.096Z,15.75
2023-10-09T14:29:23.921Z,15.76
2023-10-09T14:32:01.622Z,15.80
2023-10-09T14:34:33.981Z,15.84
2023-10-09T14:37:04.583Z,15.82
2023-10-09T14:39:37.995Z,15.82
2023-10-09T14:42:10.910Z,15.78
2023-10-09T14:44:46.338Z,15.77
2023-10-09T14:47:16.406Z,15.77
2023-10-09T14:49:47.875Z,15.80
2023-10-09T14:52:20.427Z,15.78
2023-10-09T14:54:51.931Z,15.77
2023-10-09T14:57:20.692Z,15.73
2023-10-09T14:59:50.615Z,15.74
2023-10-09T15:02:19.520Z,15.75
2023-10-09T15:04:48.501Z,15.76
2023-10-09T15:07:37.507Z,15.76
2023-10-09T15:10:10.471Z,15.67
2023-10-09T15:12:44.017Z,15.68
2023-10-09T15:15:14.977Z,15.64
2023-10-09T15:17:47.077Z,15.67
2023-10-09T15:20:17.096Z,15.66
2023-10-09T15:22:48.812Z,15.64
2023-10-09T15:25:18.618Z,15.66
2023-10-09T15:27:47.600Z,15.68
2023-10-09T15:30:18.412Z,15.67
2023-10-09T15:33:02.851Z,15.68
2023-10-09T15:35:35.321Z,15.69
2023-10-09T15:38:06.596Z,15.71
2023-10-09T15:40:36.451Z,15.71
2023-10-09T15:43:06.831Z,15.73
2023-10-09T15:45:45.702Z,15.74
2023-10-09T15:48:24.886Z,15.72
2023-10-09T15:50:53.878Z,15.66
2023-10-09T15:53:25.204Z,15.66
2023-10-09T15:55:59.040Z,15.67
2023-10-09T15:58:28.489Z,15.69
2023-10-09T16:00:57.220Z,15.68
2023-10-09T16:03:28.620Z,15.66
2023-10-09T16:06:01.220Z,15.64
2023-10-09T16:08:32.911Z,15.69
2023-10-09T16:11:02.441Z,15.67
2023-10-09T16:13:31.416Z,15.70
2023-10-09T16:16:02.183Z,15.72
2023-10-09T16:18:31.489Z,15.77
2023-10-09T16:21:02.316Z,15.71
2023-10-09T16:23:34.023Z,15.75
2023-10-09T16:26:05.407Z,15.79
2023-10-09T16:28:34.718Z,15.77
2023-10-09T16:31:03.645Z,15.80
2023-10-09T16:33:32.316Z,15.76
2023-10-09T16:36:01.231Z,15.74
2023-10-09T16:38:29.949Z,15.73
2023-10-09T16:41:27.244Z,15.79
2023-10-09T16:44:00.772Z,15.79
2023-10-09T16:46:30.338Z,15.79
2023-10-09T16:49:00.650Z,15.80
2023-10-09T16:51:29.626Z,15.79
2023-10-09T16:54:00.161Z,15.81
2023-10-09T16:56:34.730Z,15.83
2023-10-09T16:59:03.821Z,15.80
2023-10-09T17:01:32.773Z,15.81
2023-10-09T17:04:04.912Z,15.79
2023-10-09T17:06:35.867Z,15.81
2023-10-09T17:09:07.608Z,15.83
2023-10-09T17:11:38.215Z,15.86
2023-10-09T17:14:07.848Z,15.87
2023-10-09T17:16:42.031Z,15.82
2023-10-09T17:19:11.056Z,15.82
2023-10-09T17:21:39.663Z,15.87
2023-10-09T17:24:12.218Z,15.85
2023-10-09T17:26:46.638Z,15.86
2023-10-09T17:29:18.057Z,15.89
2023-10-09T17:31:46.848Z,15.82
2023-10-09T17:34:19.047Z,15.85
2023-10-09T17:36:50.627Z,15.88
2023-10-09T17:39:27.296Z,15.86
2023-10-09T17:41:57.600Z,15.87
2023-10-09T17:44:28.593Z,15.87
2023-10-09T17:46:57.613Z,15.86
2023-10-09T17:49:26.480Z,15.92
2023-10-09T17:51:55.526Z,15.96
2023-10-09T17:54:25.115Z,15.95
2023-10-09T17:56:57.213Z,15.95
2023-10-09T17:59:28.593Z,15.94
2023-10-09T18:01:58.482Z,15.97
2023-10-09T18:04:28.239Z,15.96
2023-10-09T18:07:02.860Z,16.00
2023-10-09T18:09:53.483Z,16.01
2023-10-09T18:12:24.174Z,15.93
2023-10-09T18:14:56.236Z,15.94
2023-10-09T18:17:28.047Z,15.94
2023-10-09T18:19:57.050Z,15.95
2023-10-09T18:22:27.450Z,15.97
2023-10-09T18:24:56.706Z,15.92
2023-10-09T18:27:25.405Z,15.89
2023-10-09T18:29:55.594Z,15.91
2023-10-09T18:32:24.805Z,15.94
2023-10-09T18:34:54.626Z,15.95
2023-10-09T18:37:24.780Z,15.94
2023-10-09T18:39:54.528Z,15.90
2023-10-09T18:42:23.884Z,15.94
2023-10-09T18:44:54.274Z,15.99
2023-10-09T18:47:23.396Z,16.02
2023-10-09T18:49:52.549Z,16.04
2023-10-09T18:52:21.655Z,16.04
2023-10-09T18:54:50.665Z,16.03
2023-10-09T18:57:22.479Z,16.07
2023-10-09T18:59:55.114Z,16.05
2023-10-09T19:02:23.847Z,16.08
2023-10-09T19:04:53.497Z,16.03
2023-10-09T19:07:22.547Z,16.08
2023-10-09T19:09:56.408Z,16.06
2023-10-09T19:12:25.317Z,16.11
2023-10-09T19:14:56.392Z,16.12
2023-10-09T19:17:25.780Z,16.13
2023-10-09T19:19:55.979Z,16.12
2023-10-09T19:22:25.620Z,16.14
2023-10-09T19:24:55.494Z,16.13
2023-10-09T19:27:27.293Z,16.11
2023-10-09T19:30:02.029Z,16.08
2023-10-09T19:32:31.416Z,16.11
2023-10-09T19:35:03.829Z,16.13
2023-10-09T19:37:32.634Z,16.11
2023-10-09T19:40:07.768Z,16.06
2023-10-09T19:42:37.984Z,16.10
2023-10-09T19:45:11.436Z,16.11
2023-10-09T19:47:41.225Z,16.08
2023-10-09T19:50:15.099Z,16.08
2023-10-09T19:52:46.473Z,16.12
2023-10-09T19:55:15.804Z,16.14
2023-10-09T19:57:44.920Z,16.13
2023-10-09T20:00:38.272Z,16.11
2023-10-09T20:03:13.372Z,16.11
2023-10-09T20:05:43.374Z,15.88
2023-10-09T20:08:12.631Z,15.90
2023-10-09T20:10:41.567Z,15.90
2023-10-09T20:13:11.172Z,15.87
2023-10-09T20:15:45.211Z,16.02
2023-10-09T20:18:14.550Z,16.06
2023-10-09T20:20:46.395Z,16.10
2023-10-09T20:23:24.936Z,16.16
2023-10-09T20:26:01.310Z,16.20
2023-10-09T20:28:30.542Z,16.22
2023-10-09T20:31:02.798Z,16.25
2023-10-09T20:33:34.941Z,16.23
2023-10-09T20:36:56.852Z,16.21
2023-10-09T20:39:27.149Z,16.16
2023-10-09T20:41:56.110Z,16.12
2023-10-09T20:44:25.146Z,16.06
2023-10-09T20:46:55.690Z,16.05
2023-10-09T20:49:24.751Z,16.01
2023-10-09T20:51:58.932Z,16.03
2023-10-09T20:54:29.924Z,16.07
2023-10-09T20:56:58.836Z,16.11
2023-10-09T20:59:27.668Z,16.15
2023-10-09T21:01:57.976Z,16.10
2023-10-09T21:04:27.044Z,16.01
2023-10-09T21:06:56.295Z,16.00
2023-10-09T21:09:26.214Z,16.03
2023-10-09T21:11:55.588Z,16.07
2023-10-09T21:14:24.413Z,16.09
2023-10-09T21:16:53.412Z,16.11
2023-10-09T21:19:23.906Z,16.14
2023-10-09T21:21:53.110Z,16.11
2023-10-09T21:24:21.995Z,16.07
2023-10-09T21:26:50.700Z,16.06
2023-10-09T21:29:19.787Z,16.06
2023-10-09T21:31:49.929Z,16.06
2023-10-09T21:34:19.071Z,16.06
2023-10-09T21:36:49.311Z,16.07
2023-10-09T21:39:19.103Z,16.11
2023-10-09T21:41:50.864Z,16.11
2023-10-09T21:44:19.693Z,16.13
2023-10-09T21:46:48.385Z,16.12
2023-10-09T21:49:17.171Z,16.12
2023-10-09T21:51:46.103Z,16.14
2023-10-09T21:54:16.985Z,16.08
2023-10-09T21:56:45.812Z,15.99
2023-10-09T21:59:14.996Z,15.99
2023-10-09T22:01:44.104Z,16.15
2023-10-09T22:04:12.951Z,16.20
2023-10-09T22:06:44.029Z,16.22
2023-10-09T22:09:15.801Z,16.23
2023-10-09T22:11:46.500Z,16.20
2023-10-09T22:14:15.244Z,16.23
2023-10-09T22:16:44.100Z,16.21
2023-10-09T22:19:17.096Z,16.21
2023-10-09T22:21:49.209Z,16.17
2023-10-09T22:24:22.176Z,16.21
2023-10-09T22:26:53.234Z,16.23
2023-10-09T22:29:28.851Z,16.26
2023-10-09T22:32:00.936Z,16.23
2023-10-09T22:34:31.858Z,16.25
2023-10-09T22:37:04.331Z,16.26
2023-10-09T22:39:34.997Z,16.28
2023-10-09T22:42:05.397Z,16.29
2023-10-09T22:44:34.805Z,16.25
2023-10-09T22:47:08.806Z,16.23
2023-10-09T22:49:39.449Z,16.27
2023-10-09T22:52:12.325Z,16.23
2023-10-09T22:54:43.479Z,16.27
2023-10-09T22:57:15.119Z,16.29
2023-10-09T22:59:51.686Z,16.28
2023-10-09T23:02:40.359Z,16.28
2023-10-09T23:05:14.204Z,16.25
2023-10-09T23:07:59.840Z,16.24
2023-10-09T23:10:28.795Z,16.25
2023-10-09T23:13:15.564Z,16.28
2023-10-09T23:15:51.015Z,16.30
2023-10-09T23:18:34.715Z,16.27
2023-10-09T23:21:21.102Z,16.29
2023-10-09T23:23:51.960Z,16.27
2023-10-09T23:26:30.838Z,16.29
2023-10-09T23:29:10.144Z,16.27
2023-10-09T23:31:48.396Z,16.26
2023-10-09T23:34:21.755Z,16.26
2023-10-09T23:36:56.384Z,16.22
2023-10-09T23:39:39.125Z,16.13
2023-10-09T23:42:16.950Z,16.18
2023-10-09T23:44:48.752Z,16.16
2023-10-09T23:47:18.867Z,16.14
2023-10-09T23:49:52.768Z,16.18
2023-10-09T23:52:25.144Z,16.21
2023-10-09T23:55:01.914Z,16.23
2023-10-09T23:57:43.282Z,16.20
